createdAt,value
2022-09-02T00:02:13.086Z,26.62
2022-09-02T00:04:39.943Z,26.78
2022-09-02T00:07:06.818Z,26.80
2022-09-02T00:09:33.924Z,26.56
2022-09-02T00:12:00.858Z,26.69
2022-09-02T00:14:34.419Z,26.90
2022-09-02T00:17:02.162Z,26.77
2022-09-02T00:19:30.457Z,26.48
2022-09-02T00:21:58.516Z,26.71
2022-09-02T00:24:26.018Z,26.80
2022-09-02T00:26:56.451Z,26.77
2022-09-02T00:29:25.521Z,26.88
2022-09-02T00:31:52.644Z,26.71
2022-09-02T00:34:20.851Z,26.78
2022-09-02T00:36:47.852Z,26.76
2022-09-02T00:39:14.823Z,26.68
2022-09-02T00:41:42.935Z,26.73
2022-09-02T00:44:13.232Z,26.85
2022-09-02T00:46:40.631Z,26.81
2022-09-02T00:49:24.958Z,26.75
2022-09-02T00:51:57.588Z,26.73
2022-09-02T00:54:29.242Z,26.86
2022-09-02T00:56:56.608Z,26.91
2022-09-02T00:59:41.182Z,26.89
2022-09-02T01:02:09.716Z,26.87
2022-09-02T01:04:37.998Z,26.98
2022-09-02T01:07:06.604Z,26.96
2022-09-02T01:09:33.894Z,26.88
2022-09-02T01:12:03.003Z,26.83
2022-09-02T01:14:30.450Z,26.89
2022-09-02T01:17:01.102Z,26.96
2022-09-02T01:19:43.554Z,26.60
2022-09-02T01:22:21.279Z,26.15
2022-09-02T01:24:48.490Z,26.21
2022-09-02T01:27:21.387Z,25.66
2022-09-02T01:29:59.490Z,25.71
2022-09-02T01:32:29.442Z,26.13
2022-09-02T01:34:56.547Z,26.32
2022-09-02T01:37:24.079Z,25.99
2022-09-02T01:39:52.346Z,26.17
2022-09-02T01:42:21.018Z,26.45
2022-09-02T01:44:48.500Z,26.36
2022-09-02T01:47:19.638Z,26.49
2022-09-02T01:49:47.767Z,26.23
2022-09-02T01:52:15.872Z,26.51
2022-09-02T01:54:42.780Z,26.73
2022-09-02T01:57:10.363Z,26.71
2022-09-02T01:59:39.115Z,26.61
2022-09-02T02:02:06.586Z,26.64
2022-09-02T02:04:34.024Z,26.55
2022-09-02T02:07:03.967Z,26.62
2022-09-02T02:09:30.823Z,26.56
2022-09-02T02:11:58.287Z,26.63
2022-09-02T02:14:27.959Z,26.67
2022-09-02T02:16:54.845Z,26.57
2022-09-02T02:19:21.751Z,26.36
2022-09-02T02:21:49.014Z,26.60
2022-09-02T02:24:17.227Z,26.51
2022-09-02T02:26:43.951Z,26.62
2022-09-02T02:29:11.470Z,26.55
2022-09-02T02:31:39.726Z,26.58
2022-09-02T02:34:07.252Z,26.57
2022-09-02T02:36:34.390Z,26.50
2022-09-02T02:39:01.677Z,26.39
2022-09-02T02:41:32.131Z,26.54
2022-09-02T02:44:00.588Z,26.25
2022-09-02T02:46:31.104Z,26.21
2022-09-02T02:49:02.822Z,26.03
2022-09-02T02:51:29.809Z,25.90
2022-09-02T02:53:59.031Z,26.06
2022-09-02T02:56:29.765Z,25.69
2022-09-02T02:59:00.916Z,25.69
2022-09-02T03:01:27.958Z,25.84
2022-09-02T03:03:55.068Z,25.83
2022-09-02T03:06:26.664Z,25.78
2022-09-02T03:08:57.663Z,25.78
2022-09-02T03:11:28.430Z,25.50
2022-09-02T03:13:56.795Z,25.57
2022-09-02T03:16:24.235Z,25.59
2022-09-02T03:18:53.548Z,25.73
2022-09-02T03:21:20.400Z,25.60
2022-09-02T03:23:48.038Z,25.73
2022-09-02T03:26:18.981Z,25.76
2022-09-02T03:28:47.619Z,25.79
2022-09-02T03:31:18.631Z,25.89
2022-09-02T03:33:46.307Z,25.43
2022-09-02T03:36:40.323Z,25.77
2022-09-02T03:39:10.257Z,25.67
2022-09-02T03:41:42.938Z,25.69
2022-09-02T03:44:11.699Z,25.67
2022-09-02T03:46:39.639Z,25.70
2022-09-02T03:49:06.879Z,25.60
2022-09-02T03:51:33.764Z,25.50
2022-09-02T03:54:02.737Z,25.63
2022-09-02T03:56:30.724Z,25.82
2022-09-02T03:58:57.752Z,25.90
2022-09-02T04:01:29.039Z,25.82
2022-09-02T04:04:04.757Z,25.86
2022-09-02T04:06:33.396Z,25.78
2022-09-02T04:09:02.858Z,25.70
2022-09-02T04:11:31.375Z,25.67
2022-09-02T04:13:59.124Z,25.53
2022-09-02T04:16:29.203Z,25.45
2022-09-02T04:19:04.066Z,25.67
2022-09-02T04:21:36.454Z,25.45
2022-09-02T04:24:05.045Z,25.48
2022-09-02T04:26:33.116Z,25.75
2022-09-02T04:28:59.971Z,25.67
2022-09-02T04:31:32.606Z,25.41
2022-09-02T04:34:00.573Z,25.19
2022-09-02T04:36:30.829Z,25.33
2022-09-02T04:39:01.776Z,25.41
2022-09-02T04:41:32.082Z,25.46
2022-09-02T04:44:03.190Z,25.49
2022-09-02T04:46:35.206Z,25.72
2022-09-02T04:49:06.432Z,25.77
2022-09-02T04:51:33.991Z,25.79
2022-09-02T04:54:03.124Z,25.62
2022-09-02T04:56:32.383Z,25.62
2022-09-02T04:59:00.926Z,25.94
2022-09-02T05:01:32.681Z,26.08
2022-09-02T05:04:09.647Z,26.11
2022-09-02T05:06:44.101Z,26.20
2022-09-02T05:09:15.790Z,26.19
2022-09-02T05:11:43.642Z,26.21
2022-09-02T05:14:10.512Z,26.24
2022-09-02T05:16:40.660Z,26.38
2022-09-02T05:19:13.768Z,26.38
2022-09-02T05:21:47.162Z,26.30
2022-09-02T05:24:26.628Z,26.14
2022-09-02T05:26:56.941Z,26.17
2022-09-02T05:29:26.704Z,26.17
2022-09-02T05:31:55.724Z,26.11
2022-09-02T05:34:23.882Z,26.16
2022-09-02T05:36:53.767Z,25.91
2022-09-02T05:39:20.622Z,25.93
2022-09-02T05:41:48.704Z,25.42
2022-09-02T05:44:16.372Z,25.11
2022-09-02T05:46:48.706Z,25.66
2022-09-02T05:49:21.343Z,26.09
2022-09-02T05:52:00.188Z,25.81
2022-09-02T05:54:49.313Z,25.75
2022-09-02T05:57:19.114Z,25.92
2022-09-02T05:59:57.056Z,26.10
2022-09-02T06:02:44.425Z,26.14
2022-09-02T06:05:32.499Z,25.86
2022-09-02T06:08:12.513Z,25.91
2022-09-02T06:10:43.364Z,25.96
2022-09-02T06:13:15.883Z,26.08
2022-09-02T06:15:44.290Z,26.24
2022-09-02T06:18:14.296Z,26.08
2022-09-02T06:20:46.308Z,26.40
2022-09-02T06:23:16.271Z,25.77
2022-09-02T06:25:48.057Z,25.58
2022-09-02T06:28:16.306Z,25.88
2022-09-02T06:30:48.577Z,25.78
2022-09-02T06:33:18.988Z,25.94
2022-09-02T06:35:47.297Z,26.03
2022-09-02T06:38:19.881Z,25.98
2022-09-02T06:40:54.654Z,26.08
2022-09-02T06:43:41.315Z,26.30
2022-09-02T06:46:20.400Z,26.40
2022-09-02T06:48:50.320Z,26.36
2022-09-02T06:51:31.492Z,26.49
2022-09-02T06:54:00.775Z,26.44
2022-09-02T06:56:33.395Z,26.88
2022-09-02T06:59:01.242Z,26.72
2022-09-02T07:01:43.121Z,26.95
2022-09-02T07:04:32.113Z,26.75
2022-09-02T07:06:59.398Z,26.56
2022-09-02T07:09:33.453Z,26.73
2022-09-02T07:12:08.591Z,26.30
2022-09-02T07:14:43.766Z,26.20
2022-09-02T07:17:17.956Z,26.63
2022-09-02T07:19:49.739Z,26.68
2022-09-02T07:22:18.881Z,26.73
2022-09-02T07:24:46.735Z,26.45
2022-09-02T07:27:14.722Z,26.82
2022-09-02T07:29:44.423Z,26.23
2022-09-02T07:32:12.038Z,26.66
2022-09-02T07:34:38.996Z,26.87
2022-09-02T07:37:10.695Z,26.70
2022-09-02T07:39:39.432Z,26.47
2022-09-02T07:42:07.658Z,26.42
2022-09-02T07:44:35.972Z,26.58
2022-09-02T07:47:06.007Z,26.50
2022-09-02T07:52:22.552Z,26.57
2022-09-02T07:54:50.537Z,26.98
2022-09-02T07:57:17.641Z,27.15
2022-09-02T07:59:46.479Z,27.10
2022-09-02T08:02:14.552Z,26.90
2022-09-02T08:04:41.698Z,26.48
2022-09-02T08:07:09.010Z,26.94
2022-09-02T08:09:35.796Z,27.07
2022-09-02T08:12:04.011Z,27.05
2022-09-02T08:14:30.958Z,26.82
2022-09-02T08:16:58.534Z,26.91
2022-09-02T08:19:26.564Z,26.86
2022-09-02T08:21:53.481Z,27.08
2022-09-02T08:24:20.555Z,27.30
2022-09-02T08:26:47.391Z,27.00
2022-09-02T08:29:14.349Z,27.15
2022-09-02T08:31:41.355Z,27.33
2022-09-02T08:34:08.348Z,26.85
2022-09-02T08:36:35.105Z,26.87
2022-09-02T08:39:04.151Z,26.94
2022-09-02T08:41:47.974Z,26.77
2022-09-02T08:44:21.436Z,26.82
2022-09-02T08:46:50.823Z,26.75
2022-09-02T08:49:29.819Z,26.96
2022-09-02T08:52:02.803Z,26.62
2022-09-02T08:54:57.165Z,26.93
2022-09-02T08:57:27.396Z,27.10
2022-09-02T08:59:58.447Z,26.87
2022-09-02T09:03:02.842Z,27.18
2022-09-02T09:05:52.126Z,27.22
2022-09-02T09:08:45.663Z,27.23
2022-09-02T09:11:38.685Z,27.21
2022-09-02T09:14:36.758Z,27.07
2022-09-02T09:17:31.439Z,26.99
2022-09-02T09:20:03.875Z,27.27
2022-09-02T09:22:38.486Z,27.29
2022-09-02T09:25:14.214Z,27.67
2022-09-02T09:27:41.486Z,27.49
2022-09-02T09:30:14.856Z,27.74
2022-09-02T09:32:49.492Z,27.97
2022-09-02T09:35:18.710Z,27.66
2022-09-02T09:37:53.329Z,27.94
2022-09-02T09:40:23.322Z,28.12
2022-09-02T09:43:15.210Z,27.96
2022-09-02T09:45:45.881Z,27.95
2022-09-02T09:48:31.692Z,28.02
2022-09-02T09:50:58.810Z,27.88
2022-09-02T09:53:32.357Z,28.16
2022-09-02T09:56:06.688Z,28.05
2022-09-02T09:58:44.795Z,28.12
2022-09-02T10:01:15.537Z,28.10
2022-09-02T10:04:12.139Z,28.25
2022-09-02T10:06:48.945Z,28.13
2022-09-02T10:09:18.519Z,27.87
2022-09-02T10:11:59.095Z,27.93
2022-09-02T10:14:34.058Z,28.13
2022-09-02T10:17:16.582Z,28.25
2022-09-02T10:19:49.451Z,28.22
2022-09-02T10:22:59.039Z,28.50
2022-09-02T10:25:59.129Z,28.33
2022-09-02T10:29:03.411Z,28.37
2022-09-02T10:31:49.007Z,28.27
2022-09-02T10:34:36.019Z,28.55
2022-09-02T10:37:06.811Z,29.40
2022-09-02T10:40:02.821Z,29.51
2022-09-02T10:42:54.327Z,29.65
2022-09-02T10:45:34.569Z,29.84
2022-09-02T10:48:15.995Z,29.62
2022-09-02T10:51:00.520Z,29.26
2022-09-02T10:54:03.717Z,28.96
2022-09-02T10:57:04.320Z,29.28
2022-09-02T10:59:57.435Z,29.43
2022-09-02T11:02:31.207Z,29.40
2022-09-02T11:05:04.071Z,29.31
2022-09-02T11:07:43.773Z,29.10
2022-09-02T11:10:28.304Z,29.79
2022-09-02T11:13:14.594Z,28.61
2022-09-02T11:15:51.915Z,29.75
2022-09-02T11:18:46.498Z,30.38
2022-09-02T11:21:31.664Z,29.67
2022-09-02T11:24:13.023Z,29.74
2022-09-02T11:27:26.307Z,30.42
2022-09-02T11:30:11.433Z,30.83
2022-09-02T11:32:45.595Z,29.40
2022-09-02T11:35:27.512Z,30.59
2022-09-02T11:38:05.204Z,30.64
2022-09-02T11:43:49.199Z,31.39
2022-09-02T11:46:36.768Z,31.35
2022-09-02T11:49:39.314Z,31.62
2022-09-02T11:52:34.064Z,31.85
2022-09-02T11:55:19.912Z,31.67
2022-09-02T11:57:54.702Z,31.54
2022-09-02T12:00:32.194Z,31.44
2022-09-02T12:03:40.961Z,30.79
2022-09-02T12:06:14.433Z,30.82
2022-09-02T12:08:42.983Z,30.64
2022-09-02T12:11:46.980Z,29.96
2022-09-02T12:14:57.295Z,30.25
2022-09-02T12:17:40.698Z,30.30
2022-09-02T12:20:12.493Z,30.29
2022-09-02T12:22:42.120Z,29.75
2022-09-02T12:25:24.293Z,30.20
2022-09-02T12:28:19.072Z,29.68
2022-09-02T12:31:07.583Z,30.16
2022-09-02T12:33:39.671Z,30.84
2022-09-02T12:36:08.433Z,30.80
2022-09-02T12:38:38.919Z,31.09
2022-09-02T12:41:15.296Z,30.48
2022-09-02T12:44:10.059Z,30.88
2022-09-02T12:46:37.477Z,30.88
2022-09-02T12:49:07.073Z,30.99
2022-09-02T12:51:55.197Z,30.92
2022-09-02T12:54:27.847Z,30.53
2022-09-02T12:56:54.949Z,30.99
2022-09-02T12:59:30.205Z,30.82
2022-09-02T13:02:00.066Z,30.51
2022-09-02T13:04:50.892Z,30.58
2022-09-02T13:07:33.155Z,30.43
2022-09-02T13:10:11.574Z,30.87
2022-09-02T13:12:57.598Z,30.33
2022-09-02T13:15:35.725Z,30.54
2022-09-02T13:18:42.629Z,30.38
2022-09-02T13:21:27.910Z,30.33
2022-09-02T13:24:06.874Z,30.35
2022-09-02T13:27:06.105Z,30.29
2022-09-02T13:30:05.049Z,30.13
2022-09-02T13:32:33.926Z,30.00
2022-09-02T13:35:07.875Z,29.99
2022-09-02T13:37:36.578Z,29.98
2022-09-02T13:40:25.614Z,30.04
2022-09-02T13:42:55.512Z,30.06
2022-09-02T13:45:30.943Z,29.93
2022-09-02T13:47:59.944Z,29.51
2022-09-02T13:50:30.968Z,29.21
2022-09-02T13:53:45.746Z,28.84
2022-09-02T13:55:55.152Z,28.99
2022-09-02T13:58:33.746Z,27.84
2022-09-02T14:01:20.990Z,26.86
2022-09-02T14:03:51.864Z,26.54
2022-09-02T14:06:23.678Z,26.34
2022-09-02T14:09:00.532Z,26.02
2022-09-02T14:11:32.806Z,25.93
2022-09-02T14:13:59.847Z,25.89
2022-09-02T14:16:35.040Z,26.49
2022-09-02T14:19:06.237Z,26.43
2022-09-02T14:21:34.635Z,26.36
2022-09-02T14:24:02.414Z,26.88
2022-09-02T14:26:42.866Z,27.16
2022-09-02T14:29:15.476Z,27.43
2022-09-02T14:31:43.422Z,27.45
2022-09-02T14:34:36.564Z,27.60
2022-09-02T14:37:26.151Z,27.50
2022-09-02T14:40:00.589Z,27.69
2022-09-02T14:42:29.443Z,27.55
2022-09-02T14:44:59.417Z,27.44
2022-09-02T14:47:28.258Z,27.22
2022-09-02T14:49:56.134Z,27.46
2022-09-02T14:52:28.535Z,27.38
2022-09-02T14:54:57.578Z,27.53
2022-09-02T14:57:28.574Z,27.41
2022-09-02T15:00:09.672Z,27.35
2022-09-02T15:02:38.531Z,27.43
2022-09-02T15:05:08.167Z,27.55
2022-09-02T15:07:35.330Z,27.38
2022-09-02T15:10:02.649Z,27.49
2022-09-02T15:12:32.786Z,27.65
2022-09-02T15:15:00.278Z,27.39
2022-09-02T15:17:28.358Z,27.17
2022-09-02T15:19:55.128Z,27.46
2022-09-02T15:22:24.165Z,27.26
2022-09-02T15:24:52.174Z,27.27
2022-09-02T15:27:21.442Z,27.22
2022-09-02T15:29:49.464Z,27.28
2022-09-02T15:32:16.438Z,27.34
2022-09-02T15:34:43.522Z,27.28
2022-09-02T15:37:13.214Z,27.61
2022-09-02T15:39:40.629Z,27.17
2022-09-02T15:42:07.459Z,27.21
2022-09-02T15:44:35.594Z,27.08
2022-09-02T15:47:02.408Z,27.02
2022-09-02T15:49:30.728Z,27.09
2022-09-02T15:51:59.099Z,27.28
2022-09-02T15:54:25.939Z,27.26
2022-09-02T15:56:58.597Z,27.11
2022-09-02T15:59:26.619Z,27.22
2022-09-02T16:01:56.085Z,27.29
2022-09-02T16:04:23.510Z,27.12
2022-09-02T16:06:52.457Z,27.14
2022-09-02T16:09:19.754Z,26.98
2022-09-02T16:11:52.619Z,27.08
2022-09-02T16:14:21.417Z,27.13
2022-09-02T16:16:50.885Z,27.07
2022-09-02T16:19:22.385Z,27.12
2022-09-02T16:21:50.574Z,27.01
2022-09-02T16:24:18.460Z,27.13
2022-09-02T16:26:45.970Z,26.91
2022-09-02T16:29:14.381Z,26.64
2022-09-02T16:31:43.782Z,26.36
2022-09-02T16:34:14.339Z,26.54
2022-09-02T16:36:46.609Z,26.75
2022-09-02T16:39:15.450Z,26.59
2022-09-02T16:41:47.455Z,26.53
2022-09-02T16:44:17.460Z,26.31
2022-09-02T16:46:46.122Z,26.23
2022-09-02T16:49:18.429Z,26.03
2022-09-02T16:51:46.362Z,25.71
2022-09-02T16:54:17.507Z,25.56
2022-09-02T16:56:48.754Z,25.28
2022-09-02T16:59:15.527Z,25.42
2022-09-02T17:01:43.330Z,25.15
2022-09-02T17:04:10.337Z,24.67
2022-09-02T17:06:42.070Z,24.39
2022-09-02T17:09:09.516Z,24.47
2022-09-02T17:11:39.841Z,25.18
2022-09-02T17:14:09.518Z,25.23
2022-09-02T17:16:42.483Z,25.03
2022-09-02T17:19:10.802Z,24.77
2022-09-02T17:21:37.708Z,24.93
2022-09-02T17:24:06.375Z,25.36
2022-09-02T17:26:37.544Z,25.02
2022-09-02T17:29:21.234Z,25.12
2022-09-02T17:31:57.022Z,25.18
2022-09-02T17:34:23.964Z,24.99
2022-09-02T17:36:50.964Z,25.13
2022-09-02T17:39:19.267Z,24.95
2022-09-02T17:41:55.875Z,24.61
2022-09-02T17:44:25.911Z,24.53
2022-09-02T17:46:55.764Z,23.88
2022-09-02T17:49:22.719Z,23.95
2022-09-02T17:51:50.103Z,24.53
2022-09-02T17:54:17.300Z,24.72
2022-09-02T17:57:05.832Z,24.73
2022-09-02T17:59:32.663Z,24.72
2022-09-02T18:02:29.841Z,24.24
2022-09-02T18:05:14.723Z,24.55
2022-09-02T18:08:10.211Z,23.92
2022-09-02T18:10:51.877Z,23.58
2022-09-02T18:13:31.449Z,23.23
2022-09-02T18:16:22.093Z,23.33
2022-09-02T18:19:03.096Z,22.94
2022-09-02T18:21:50.637Z,23.26
2022-09-02T18:24:35.590Z,23.42
2022-09-02T18:27:16.156Z,23.42
2022-09-02T18:30:06.406Z,23.73
2022-09-02T18:32:52.013Z,24.26
2022-09-02T18:35:25.529Z,24.26
2022-09-02T18:38:28.522Z,24.28
2022-09-02T18:41:10.273Z,24.51
2022-09-02T18:44:09.307Z,24.10
2022-09-02T18:46:49.963Z,23.63
2022-09-02T18:49:17.222Z,23.29
2022-09-02T18:51:45.120Z,23.01
2022-09-02T18:54:19.133Z,23.20
2022-09-02T18:56:55.716Z,23.92
2022-09-02T18:59:49.555Z,24.06
2022-09-02T19:02:25.944Z,23.30
2022-09-02T19:04:53.233Z,23.84
2022-09-02T19:07:39.835Z,23.95
2022-09-02T19:10:09.009Z,23.24
2022-09-02T19:12:36.916Z,23.65
2022-09-02T19:15:09.468Z,23.76
2022-09-02T19:17:40.750Z,23.24
2022-09-02T19:20:09.393Z,23.29
2022-09-02T19:22:42.138Z,23.32
2022-09-02T19:25:22.741Z,23.04
2022-09-02T19:27:52.887Z,22.98
2022-09-02T19:30:24.666Z,22.59
2022-09-02T19:32:54.342Z,22.48
2022-09-02T19:35:24.202Z,22.97
2022-09-02T19:37:53.492Z,22.09
2022-09-02T19:40:23.509Z,22.19
2022-09-02T19:42:52.731Z,22.53
2022-09-02T19:45:21.628Z,22.46
2022-09-02T19:48:08.813Z,22.54
2022-09-02T19:50:44.660Z,22.73
2022-09-02T19:53:20.182Z,22.34
2022-09-02T19:55:47.198Z,22.25
2022-09-02T19:58:14.154Z,22.66
2022-09-02T20:00:42.648Z,22.45
2022-09-02T20:03:11.095Z,22.35
2022-09-02T20:05:39.568Z,22.68
2022-09-02T20:08:09.177Z,22.51
2022-09-02T20:10:37.955Z,22.72
2022-09-02T20:13:06.862Z,22.53
2022-09-02T20:15:37.473Z,22.27
2022-09-02T20:18:13.056Z,22.31
2022-09-02T20:20:45.224Z,22.41
2022-09-02T20:23:17.082Z,22.06
2022-09-02T20:25:52.763Z,22.00
2022-09-02T20:28:28.456Z,22.64
2022-09-02T20:31:23.507Z,22.19
2022-09-02T20:34:18.169Z,22.61
2022-09-02T20:37:06.328Z,22.72
2022-09-02T20:40:03.195Z,22.31
2022-09-02T20:42:42.060Z,22.08
2022-09-02T20:45:22.371Z,22.18
2022-09-02T20:48:28.104Z,22.07
2022-09-02T20:51:01.092Z,22.42
2022-09-02T20:54:00.782Z,22.43
2022-09-02T20:56:45.993Z,22.63
2022-09-02T20:59:44.056Z,22.52
2022-09-02T21:02:14.769Z,22.38
2022-09-02T21:04:53.459Z,22.43
2022-09-02T21:07:42.717Z,22.66
2022-09-02T21:10:19.596Z,22.04
2022-09-02T21:12:55.180Z,22.57
2022-09-02T21:15:32.434Z,22.04
2022-09-02T21:18:16.799Z,22.23
2022-09-02T21:21:03.529Z,22.56
2022-09-02T21:23:41.731Z,22.12
2022-09-02T21:26:18.331Z,21.96
2022-09-02T21:29:12.065Z,22.36
2022-09-02T21:31:45.592Z,22.43
2022-09-02T21:34:27.434Z,22.24
2022-09-02T21:36:55.935Z,22.32
2022-09-02T21:39:26.218Z,22.32
2022-09-02T21:42:25.068Z,21.95
2022-09-02T21:45:21.369Z,22.10
2022-09-02T21:48:14.958Z,22.16
2022-09-02T21:51:04.980Z,21.78
2022-09-02T21:53:48.650Z,22.02
2022-09-02T21:56:22.818Z,21.82
2022-09-02T21:59:08.944Z,22.02
2022-09-02T22:01:50.024Z,22.12
2022-09-02T22:04:35.897Z,22.58
2022-09-02T22:07:20.003Z,22.36
2022-09-02T22:10:12.443Z,22.37
2022-09-02T22:12:42.248Z,21.91
2022-09-02T22:15:26.560Z,22.38
2022-09-02T22:18:01.143Z,22.17
2022-09-02T22:20:35.307Z,22.13
2022-09-02T22:23:09.523Z,22.43
2022-09-02T22:25:38.192Z,21.80
2022-09-02T22:28:21.300Z,21.69
2022-09-02T22:30:56.777Z,22.11
2022-09-02T22:33:30.945Z,22.35
2022-09-02T22:36:14.767Z,22.39
2022-09-02T22:38:48.001Z,22.00
2022-09-02T22:41:30.691Z,22.09
2022-09-02T22:44:21.706Z,22.20
2022-09-02T22:47:18.793Z,22.62
2022-09-02T22:50:14.087Z,22.23
2022-09-02T22:52:54.593Z,21.93
2022-09-02T22:55:53.072Z,22.28
2022-09-02T22:58:40.099Z,22.49
2022-09-02T23:01:25.333Z,22.63
2022-09-02T23:04:16.227Z,22.34
2022-09-02T23:06:44.863Z,22.05
2022-09-02T23:09:14.045Z,22.30
2022-09-02T23:11:49.928Z,22.00
2022-09-02T23:14:26.701Z,22.22
2022-09-02T23:17:20.260Z,21.85
2022-09-02T23:19:49.989Z,22.06
2022-09-02T23:22:34.214Z,21.71
2022-09-02T23:25:34.398Z,21.67
2022-09-02T23:28:15.367Z,21.94
2022-09-02T23:31:17.940Z,21.96
2022-09-02T23:34:04.581Z,22.46
2022-09-02T23:36:47.354Z,22.64
2022-09-02T23:39:25.122Z,22.34
2022-09-02T23:41:54.296Z,22.14
2022-09-02T23:44:22.954Z,22.39
2022-09-02T23:47:01.878Z,22.23
2022-09-02T23:49:42.464Z,22.77
2022-09-02T23:52:28.332Z,22.02
2022-09-02T23:54:55.197Z,21.93
2022-09-02T23:57:35.708Z,22.01
